Time;durP1;ratioP1;P1;durP2;ratioP2;P2;SDS_P1;SDS_P2;PMS_P1;PMS_P2;Temp;Humidity;BMP_temperature;BMP_pressure;BME280_temperature;BME280_humidity;BME280_pressure;Samples;Min_cycle;Max_cycle;Signal;HPM_P1;HPM_P2
2023/04/12 00:01:51;;;;;;;6.63;3.20;;;12.00;89.20;;;;;;5054811;28;20528;-56
2023/04/12 00:04:17;;;;;;;6.13;2.20;;;11.90;90.20;;;;;;5054629;28;20542;-56
2023/04/12 00:06:47;;;;;;;5.03;2.10;;;11.90;90.80;;;;;;5054343;28;20453;-56
2023/04/12 00:09:14;;;;;;;3.83;1.83;;;11.90;91.00;;;;;;5054339;28;20831;-55
2023/04/12 00:11:41;;;;;;;4.97;1.73;;;11.90;91.40;;;;;;5053975;28;20450;-56
2023/04/12 00:14:08;;;;;;;3.87;1.93;;;11.80;91.70;;;;;;5054385;28;20466;-56
2023/04/12 00:16:37;;;;;;;6.53;1.73;;;11.80;91.90;;;;;;5054493;28;20453;-56
2023/04/12 00:19:05;;;;;;;9.00;1.97;;;11.90;92.30;;;;;;5054356;28;20537;-56
2023/04/12 00:21:32;;;;;;;6.97;2.23;;;11.80;92.40;;;;;;5054229;28;20974;-55
2023/04/12 00:23:59;;;;;;;7.30;2.20;;;11.80;92.60;;;;;;5054749;28;20489;-56
2023/04/12 00:26:25;;;;;;;7.90;2.60;;;11.80;92.90;;;;;;5054922;28;20453;-56
2023/04/12 00:28:52;;;;;;;6.73;2.63;;;11.90;93.00;;;;;;5054948;28;20936;-56
2023/04/12 00:31:19;;;;;;;6.63;2.13;;;11.90;93.20;;;;;;5054343;28;20823;-56
2023/04/12 00:33:47;;;;;;;5.30;2.17;;;11.90;93.50;;;;;;5054120;28;20465;-55
2023/04/12 00:36:13;;;;;;;7.97;2.67;;;11.90;93.90;;;;;;5063691;28;20445;-55
2023/04/12 00:38:41;;;;;;;6.73;2.00;;;11.90;94.10;;;;;;5073832;28;20855;-56
2023/04/12 00:41:08;;;;;;;7.00;1.70;;;11.90;94.40;;;;;;5073720;28;20459;-56
2023/04/12 00:43:34;;;;;;;9.13;2.10;;;11.90;94.30;;;;;;5073849;28;20541;-55
2023/04/12 00:46:02;;;;;;;8.63;2.27;;;11.90;94.70;;;;;;5074088;28;20453;-56
2023/04/12 00:48:29;;;;;;;7.37;2.17;;;11.90;94.70;;;;;;5073770;28;20453;-56
2023/04/12 00:50:57;;;;;;;5.43;2.50;;;11.90;94.90;;;;;;5073684;28;20838;-56
2023/04/12 00:53:24;;;;;;;6.80;2.40;;;11.90;95.00;;;;;;5073829;28;20448;-56
2023/04/12 00:55:51;;;;;;;3.83;1.50;;;11.90;95.20;;;;;;5073395;28;20853;-56
2023/04/12 00:58:18;;;;;;;8.60;3.00;;;11.80;95.50;;;;;;5073779;28;20453;-56
2023/04/12 01:00:48;;;;;;;7.20;2.03;;;11.80;95.60;;;;;;5073144;28;20864;-55
2023/04/12 01:03:21;;;;;;;4.00;1.90;;;11.80;95.80;;;;;;5073760;28;20464;-55
2023/04/12 01:05:59;;;;;;;6.03;1.70;;;11.80;95.80;;;;;;5073723;28;20429;-56
2023/04/12 01:08:38;;;;;;;6.67;1.80;;;11.70;95.90;;;;;;5073733;28;20429;-56
2023/04/12 01:11:12;;;;;;;4.67;1.63;;;11.70;96.00;;;;;;5073512;28;20433;-56
2023/04/12 01:13:45;;;;;;;2.53;1.40;;;11.70;96.20;;;;;;5073470;28;20459;-56
2023/04/12 01:16:19;;;;;;;3.93;1.80;;;11.60;96.40;;;;;;5073539;28;20468;-56
2023/04/12 01:18:50;;;;;;;3.90;1.57;;;11.50;96.40;;;;;;5073482;28;20854;-56
2023/04/12 01:21:27;;;;;;;3.67;1.60;;;11.50;96.40;;;;;;5073532;28;20548;-56
2023/04/12 01:24:07;;;;;;;4.63;1.57;;;11.40;96.50;;;;;;5072791;28;20990;-56
2023/04/12 01:26:41;;;;;;;4.13;1.60;;;11.50;96.60;;;;;;5073364;28;20432;-56
2023/04/12 01:29:11;;;;;;;2.60;1.20;;;11.40;96.70;;;;;;5073027;28;20859;-56
2023/04/12 01:31:40;;;;;;;2.67;1.40;;;11.20;96.60;;;;;;5073109;28;20453;-56
2023/04/12 01:34:10;;;;;;;2.73;1.30;;;11.20;97.10;;;;;;5073327;28;20948;-56
2023/04/12 01:36:38;;;;;;;6.60;2.00;;;11.20;97.40;;;;;;5073285;28;20954;-56
2023/04/12 01:39:06;;;;;;;2.30;1.53;;;11.20;97.60;;;;;;5073228;28;20444;-56
2023/04/12 01:41:33;;;;;;;4.10;1.70;;;11.20;97.60;;;;;;5073040;28;20543;-56
2023/04/12 01:44:00;;;;;;;2.83;1.00;;;11.10;97.60;;;;;;5073079;28;20855;-56
2023/04/12 01:46:28;;;;;;;4.53;1.77;;;11.10;97.60;;;;;;5073239;28;20824;-56
2023/04/12 01:48:56;;;;;;;3.10;1.60;;;11.20;97.70;;;;;;5073099;28;20440;-56
2023/04/12 01:51:33;;;;;;;2.37;1.20;;;11.20;97.80;;;;;;5073157;28;20457;-56
2023/04/12 01:54:09;;;;;;;3.60;1.33;;;11.30;97.50;;;;;;5073135;28;20845;-55
2023/04/12 01:56:38;;;;;;;3.90;1.80;;;11.30;97.60;;;;;;5073081;28;20424;-56
2023/04/12 01:59:06;;;;;;;3.20;1.20;;;11.30;97.10;;;;;;5073080;28;20446;-56
2023/04/12 02:01:34;;;;;;;1.80;1.00;;;11.20;96.80;;;;;;5073189;28;20445;-56
2023/04/12 02:04:03;;;;;;;4.17;1.30;;;11.20;97.20;;;;;;5072817;28;20516;-56
2023/04/12 02:06:31;;;;;;;3.30;1.70;;;11.10;97.20;;;;;;5072963;28;20448;-56
2023/04/12 02:09:01;;;;;;;3.30;1.53;;;11.00;97.30;;;;;;5072632;28;20441;-56
2023/04/12 02:11:27;;;;;;;5.00;1.70;;;11.00;97.30;;;;;;5072889;28;20440;-55
2023/04/12 02:13:54;;;;;;;4.83;1.10;;;11.00;97.70;;;;;;5072575;28;20995;-56
2023/04/12 02:16:21;;;;;;;2.47;1.13;;;11.00;97.60;;;;;;5072889;28;20816;-56
2023/04/12 02:18:49;;;;;;;2.03;1.30;;;11.00;97.70;;;;;;5072899;28;20445;-56
2023/04/12 02:21:16;;;;;;;3.77;1.80;;;11.00;97.90;;;;;;5072837;28;20883;-56
2023/04/12 02:23:43;;;;;;;2.73;1.20;;;11.00;98.00;;;;;;5072625;28;20840;-56
2023/04/12 02:26:10;;;;;;;2.90;1.40;;;11.00;97.80;;;;;;5072754;28;20531;-56
2023/04/12 02:28:37;;;;;;;2.63;1.33;;;11.00;98.00;;;;;;5072736;28;20559;-56
2023/04/12 02:31:04;;;;;;;3.83;1.47;;;10.90;98.10;;;;;;5072692;28;20536;-56
2023/04/12 02:33:32;;;;;;;3.50;1.43;;;10.80;98.70;;;;;;5072682;28;20813;-56
2023/04/12 02:36:01;;;;;;;2.00;1.50;;;10.80;98.70;;;;;;5074266;28;20437;-56
2023/04/12 02:38:28;;;;;;;7.63;1.37;;;10.80;98.80;;;;;;5076355;28;20452;-56
2023/04/12 02:40:55;;;;;;;2.90;1.50;;;10.80;98.90;;;;;;5076146;28;20473;-56
2023/04/12 02:43:22;;;;;;;1.57;1.47;;;10.70;99.20;;;;;;5076156;28;20460;-55
2023/04/12 02:45:49;;;;;;;4.33;1.73;;;10.70;99.40;;;;;;5075981;28;20502;-55
2023/04/12 02:48:15;;;;;;;9.57;1.53;;;10.60;99.90;;;;;;5075875;28;20951;-56
2023/04/12 02:50:42;;;;;;;3.10;1.60;;;10.60;99.90;;;;;;5076077;28;20444;-56
2023/04/12 02:53:10;;;;;;;2.40;1.20;;;10.50;99.90;;;;;;5076017;28;20472;-56
2023/04/12 02:55:39;;;;;;;1.57;1.10;;;10.50;99.90;;;;;;5076060;28;20436;-56
2023/04/12 02:58:05;;;;;;;2.63;1.40;;;10.40;99.90;;;;;;5076014;28;20453;-56
2023/04/12 03:00:32;;;;;;;2.87;1.00;;;10.50;99.90;;;;;;5075932;28;20594;-56
2023/04/12 03:03:00;;;;;;;2.93;1.27;;;10.50;99.90;;;;;;5075796;28;20934;-56
2023/04/12 03:05:27;;;;;;;2.33;1.27;;;10.50;99.90;;;;;;5075666;28;20587;-56
2023/04/12 03:07:54;;;;;;;1.73;0.93;;;10.50;99.90;;;;;;5075761;28;20440;-56
2023/04/12 03:10:22;;;;;;;3.60;1.80;;;10.50;99.90;;;;;;5075713;28;20449;-56
2023/04/12 03:12:49;;;;;;;2.53;1.50;;;10.50;99.90;;;;;;5075668;28;20456;-56
2023/04/12 03:15:16;;;;;;;5.43;1.40;;;10.60;99.90;;;;;;5075604;28;20836;-56
2023/04/12 03:17:43;;;;;;;2.50;1.20;;;10.60;99.90;;;;;;5075595;28;20502;-56
2023/04/12 03:20:10;;;;;;;4.40;2.20;;;10.50;99.90;;;;;;5076073;28;20457;-56
2023/04/12 03:22:37;;;;;;;4.73;1.97;;;10.50;99.90;;;;;;5075495;28;20531;-56
2023/04/12 03:25:05;;;;;;;2.00;1.50;;;10.50;99.90;;;;;;5075341;28;20507;-56
2023/04/12 03:27:33;;;;;;;7.00;1.83;;;10.50;99.90;;;;;;5075442;28;20853;-56
2023/04/12 03:29:59;;;;;;;2.40;1.40;;;10.50;99.90;;;;;;5075444;28;20449;-56
2023/04/12 03:32:26;;;;;;;3.40;1.50;;;10.50;99.90;;;;;;5075310;28;20528;-56
2023/04/12 03:34:54;;;;;;;5.33;1.70;;;10.50;99.90;;;;;;5075346;28;20471;-56
2023/04/12 03:37:20;;;;;;;2.40;1.43;;;10.50;99.90;;;;;;5075218;28;20448;-56
2023/04/12 03:39:47;;;;;;;2.80;1.30;;;10.60;99.90;;;;;;5075621;28;20448;-56
2023/04/12 03:42:14;;;;;;;1.93;1.67;;;10.60;99.90;;;;;;5074995;28;20514;-56
2023/04/12 03:44:42;;;;;;;1.87;1.50;;;10.50;99.90;;;;;;5075258;28;20535;-56
2023/04/12 03:47:10;;;;;;;2.00;1.40;;;10.50;99.90;;;;;;5074354;28;20444;-56
2023/04/12 03:49:37;;;;;;;2.60;1.53;;;10.50;99.90;;;;;;5075773;28;20449;-56
2023/04/12 03:52:04;;;;;;;4.27;1.70;;;10.40;99.90;;;;;;5075440;28;20870;-56
2023/04/12 03:54:31;;;;;;;1.50;1.40;;;10.40;99.90;;;;;;5075166;28;20456;-56
2023/04/12 03:56:58;;;;;;;3.13;1.73;;;10.40;99.90;;;;;;5075324;28;20456;-56
2023/04/12 03:59:24;;;;;;;4.63;1.70;;;10.30;99.90;;;;;;5075111;28;20445;-56
2023/04/12 04:01:52;;;;;;;3.20;1.60;;;10.40;99.90;;;;;;5075016;28;20444;-56
2023/04/12 04:04:19;;;;;;;1.70;1.30;;;10.40;99.90;;;;;;5074701;28;20582;-56
2023/04/12 04:06:47;;;;;;;3.67;1.43;;;10.40;99.90;;;;;;5074435;28;20455;-56
2023/04/12 04:09:14;;;;;;;4.83;2.63;;;10.40;99.90;;;;;;5074772;28;20455;-56
2023/04/12 04:11:41;;;;;;;3.50;1.53;;;10.30;99.90;;;;;;5074698;28;20506;-56
2023/04/12 04:14:07;;;;;;;2.20;1.50;;;10.30;99.90;;;;;;5067720;28;20469;-56
2023/04/12 04:16:34;;;;;;;2.63;1.20;;;10.30;99.90;;;;;;5054298;28;20847;-55
2023/04/12 04:19:02;;;;;;;3.27;1.57;;;10.40;99.90;;;;;;5069790;28;20453;-56
2023/04/12 04:21:31;;;;;;;3.03;1.37;;;10.30;99.90;;;;;;5074103;28;20521;-55
2023/04/12 04:23:59;;;;;;;4.00;1.73;;;10.30;99.90;;;;;;5074768;28;20487;-55
2023/04/12 04:26:31;;;;;;;2.33;1.23;;;10.30;99.90;;;;;;5074088;28;20486;-56
2023/04/12 04:29:00;;;;;;;5.30;1.33;;;10.30;99.90;;;;;;5074527;28;20445;-56
2023/04/12 04:31:32;;;;;;;3.30;1.67;;;10.20;99.90;;;;;;5074106;28;20488;-55
2023/04/12 04:34:02;;;;;;;4.73;1.40;;;10.30;99.90;;;;;;5074167;28;20504;-55
2023/04/12 04:36:29;;;;;;;1.70;1.10;;;10.30;99.90;;;;;;5073826;28;20947;-55
2023/04/12 04:38:57;;;;;;;1.77;1.00;;;10.30;99.90;;;;;;5073678;28;20938;-55
2023/04/12 04:41:23;;;;;;;2.10;1.20;;;10.30;99.90;;;;;;5073790;28;20921;-56
2023/04/12 04:43:50;;;;;;;2.17;1.30;;;10.30;99.90;;;;;;5073916;28;20476;-55
2023/04/12 04:46:19;;;;;;;4.20;1.43;;;10.30;99.90;;;;;;5073639;28;21057;-56
2023/04/12 04:48:47;;;;;;;4.37;1.60;;;10.20;99.90;;;;;;5073967;28;20456;-56
2023/04/12 04:51:15;;;;;;;1.43;1.23;;;10.20;99.90;;;;;;5073784;28;20520;-56
2023/04/12 04:53:42;;;;;;;3.63;1.20;;;10.20;99.90;;;;;;5073721;28;20475;-56
2023/04/12 04:56:09;;;;;;;1.97;0.90;;;10.20;99.90;;;;;;5073917;28;20436;-55
2023/04/12 04:58:36;;;;;;;2.77;0.83;;;10.20;99.90;;;;;;5073550;28;20452;-55
2023/04/12 05:01:04;;;;;;;3.10;1.50;;;10.20;99.90;;;;;;5073831;28;20858;-56
2023/04/12 05:03:32;;;;;;;4.20;1.03;;;10.20;99.90;;;;;;5073379;28;20508;-56
2023/04/12 05:05:59;;;;;;;2.50;1.20;;;10.20;99.90;;;;;;5073318;28;20516;-56
2023/04/12 05:08:28;;;;;;;4.20;1.13;;;10.20;99.90;;;;;;5073582;28;20965;-56
2023/04/12 05:10:55;;;;;;;4.00;1.63;;;10.20;99.90;;;;;;5073600;28;20480;-56
2023/04/12 05:13:22;;;;;;;1.97;1.30;;;10.20;99.90;;;;;;5073270;28;20502;-54
2023/04/12 05:15:49;;;;;;;2.57;2.00;;;10.20;99.90;;;;;;5073419;28;20447;-56
2023/04/12 05:18:16;;;;;;;2.87;1.17;;;10.20;99.90;;;;;;5073550;28;20556;-55
2023/04/12 05:20:43;;;;;;;1.53;1.07;;;10.20;99.90;;;;;;5073159;28;20866;-56
2023/04/12 05:23:09;;;;;;;3.30;0.90;;;10.10;99.90;;;;;;5073312;28;20453;-56
2023/04/12 05:25:45;;;;;;;2.97;1.07;;;10.10;99.90;;;;;;5073408;28;20534;-56
2023/04/12 05:28:13;;;;;;;1.53;1.10;;;10.10;99.90;;;;;;5073368;28;20429;-55
2023/04/12 05:30:40;;;;;;;4.57;1.20;;;10.10;99.90;;;;;;5073385;28;20444;-56
2023/04/12 05:33:06;;;;;;;4.27;1.00;;;10.10;99.90;;;;;;5073009;28;20970;-55
2023/04/12 05:35:33;;;;;;;3.87;1.40;;;10.10;99.90;;;;;;5073203;28;20468;-56
2023/04/12 05:38:00;;;;;;;3.90;1.30;;;10.10;99.90;;;;;;5073592;28;20448;-56
2023/04/12 05:40:26;;;;;;;1.70;1.10;;;10.10;99.90;;;;;;5073646;28;20473;-56
2023/04/12 05:42:54;;;;;;;1.83;1.20;;;10.10;99.90;;;;;;5073264;28;20459;-56
2023/04/12 05:45:21;;;;;;;1.90;1.37;;;10.00;99.90;;;;;;5073070;28;20579;-56
2023/04/12 05:47:48;;;;;;;1.53;1.00;;;10.00;99.90;;;;;;5073254;28;20815;-56
2023/04/12 05:50:15;;;;;;;1.37;1.23;;;10.00;99.90;;;;;;5073149;28;20449;-55
2023/04/12 05:52:42;;;;;;;2.40;1.20;;;10.00;99.90;;;;;;5073184;28;20444;-56
2023/04/12 05:55:09;;;;;;;2.10;1.30;;;10.10;99.90;;;;;;5072871;28;20488;-55
2023/04/12 05:57:35;;;;;;;2.13;1.43;;;10.10;99.90;;;;;;5073116;28;20472;-56
2023/04/12 06:00:07;;;;;;;3.83;1.50;;;10.10;99.90;;;;;;5073123;28;20461;-55
2023/04/12 06:02:33;;;;;;;1.50;1.30;;;10.10;99.90;;;;;;5073107;28;20433;-55
2023/04/12 06:05:01;;;;;;;3.70;1.10;;;10.10;99.90;;;;;;5072940;28;20472;-55
2023/04/12 06:07:28;;;;;;;1.57;1.20;;;10.10;99.90;;;;;;5072983;28;20503;-56
2023/04/12 06:09:55;;;;;;;2.20;1.40;;;10.20;99.90;;;;;;5073053;28;20453;-56
2023/04/12 06:12:22;;;;;;;1.20;1.10;;;10.10;99.90;;;;;;5076680;28;20486;-56
2023/04/12 06:14:49;;;;;;;1.30;1.20;;;10.10;99.90;;;;;;5076715;28;20468;-56
2023/04/12 06:17:17;;;;;;;3.00;1.50;;;10.10;99.90;;;;;;5076896;28;20479;-56
2023/04/12 06:19:43;;;;;;;1.60;0.83;;;10.10;99.90;;;;;;5076953;28;20460;-56
2023/04/12 06:22:10;;;;;;;1.20;1.03;;;10.10;99.90;;;;;;5076462;28;20459;-56
2023/04/12 06:24:37;;;;;;;1.90;1.10;;;10.20;99.90;;;;;;5076510;28;20982;-56
2023/04/12 06:27:03;;;;;;;2.00;1.23;;;10.30;99.90;;;;;;5076331;28;20476;-55
2023/04/12 06:29:30;;;;;;;1.77;1.10;;;10.30;99.90;;;;;;5077381;28;20460;-56
2023/04/12 06:31:57;;;;;;;2.80;1.27;;;10.40;99.90;;;;;;5076570;28;20452;-56
2023/04/12 06:34:25;;;;;;;2.10;1.30;;;10.40;99.90;;;;;;5076345;28;20468;-56
2023/04/12 06:36:52;;;;;;;1.27;1.13;;;10.40;99.90;;;;;;5076409;28;20448;-56
2023/04/12 06:39:18;;;;;;;3.03;1.10;;;10.40;99.90;;;;;;5076283;28;20550;-55
2023/04/12 06:41:46;;;;;;;2.00;1.17;;;10.40;99.90;;;;;;5076049;28;20463;-56
2023/04/12 06:44:13;;;;;;;4.10;1.37;;;10.40;99.90;;;;;;5076225;28;20471;-56
2023/04/12 06:46:39;;;;;;;1.93;1.50;;;10.50;99.90;;;;;;5076688;28;20490;-56
2023/04/12 06:49:06;;;;;;;1.83;1.40;;;10.50;99.90;;;;;;5076229;28;20444;-56
2023/04/12 06:51:35;;;;;;;1.40;1.30;;;10.40;99.90;;;;;;5076469;28;20440;-56
2023/04/12 06:54:02;;;;;;;2.10;1.13;;;10.40;99.90;;;;;;5076196;28;20472;-56
2023/04/12 06:56:28;;;;;;;4.17;1.73;;;10.40;99.90;;;;;;5076477;28;20441;-56
2023/04/12 06:58:56;;;;;;;1.90;1.57;;;10.60;99.90;;;;;;5076209;28;20942;-56
2023/04/12 07:01:22;;;;;;;1.70;1.17;;;10.60;99.90;;;;;;5076038;28;20445;-56
2023/04/12 07:03:49;;;;;;;1.47;1.07;;;10.60;99.90;;;;;;5075827;28;20475;-56
2023/04/12 07:06:16;;;;;;;1.33;1.10;;;10.70;99.90;;;;;;5076050;28;20514;-56
2023/04/12 07:08:44;;;;;;;1.50;0.97;;;10.70;99.90;;;;;;5075798;28;20456;-56
2023/04/12 07:11:11;;;;;;;2.60;1.10;;;10.80;99.90;;;;;;5076567;28;20452;-56
2023/04/12 07:13:37;;;;;;;1.90;1.50;;;10.80;99.90;;;;;;5075474;28;20469;-56
2023/04/12 07:16:05;;;;;;;1.50;1.40;;;10.90;99.90;;;;;;5073781;28;20445;-56
2023/04/12 07:18:31;;;;;;;2.20;1.33;;;10.90;99.90;;;;;;5058411;28;20445;-55
2023/04/12 07:20:58;;;;;;;1.67;1.50;;;11.00;99.90;;;;;;5057959;28;20448;-55
2023/04/12 07:23:25;;;;;;;1.93;1.40;;;11.00;99.90;;;;;;5069716;28;20453;-55
2023/04/12 07:25:58;;;;;;;2.00;1.30;;;11.00;99.90;;;;;;5075414;28;20485;-56
2023/04/12 07:28:25;;;;;;;2.10;1.70;;;11.10;99.90;;;;;;5075521;28;20506;-56
2023/04/12 07:30:52;;;;;;;1.83;1.37;;;11.10;99.90;;;;;;5075584;28;20456;-57
2023/04/12 07:33:18;;;;;;;1.80;1.20;;;11.20;99.90;;;;;;5075392;28;20451;-56
2023/04/12 07:35:45;;;;;;;1.60;1.50;;;11.30;99.90;;;;;;5075489;28;20448;-56
2023/04/12 07:38:12;;;;;;;1.60;1.43;;;11.30;99.90;;;;;;5075305;28;20444;-55
2023/04/12 07:40:38;;;;;;;3.17;1.50;;;11.40;99.90;;;;;;5075808;28;20452;-55
2023/04/12 07:43:06;;;;;;;2.57;1.40;;;11.30;99.90;;;;;;5074753;28;20841;-56
2023/04/12 07:45:35;;;;;;;1.93;1.40;;;11.30;99.90;;;;;;5074983;28;20465;-55
2023/04/12 07:48:03;;;;;;;2.40;1.40;;;11.30;99.90;;;;;;5074994;28;20471;-56
2023/04/12 07:50:30;;;;;;;1.23;1.23;;;11.20;99.90;;;;;;5074850;28;20536;-56
2023/04/12 07:53:16;;;;;;;2.13;1.40;;;11.20;99.90;;;;;;5074705;28;20813;-55
2023/04/12 07:55:43;;;;;;;1.80;1.70;;;11.30;99.90;;;;;;5074906;28;20436;-56
2023/04/12 07:58:11;;;;;;;1.77;1.67;;;11.20;99.90;;;;;;5074768;28;20449;-56
2023/04/12 08:00:38;;;;;;;2.63;1.40;;;11.20;99.90;;;;;;5074799;28;20449;-56
2023/04/12 08:03:05;;;;;;;2.87;1.90;;;11.20;99.90;;;;;;5074519;28;20805;-56
2023/04/12 08:05:31;;;;;;;1.83;1.50;;;11.30;99.90;;;;;;5074437;28;20471;-56
2023/04/12 08:07:58;;;;;;;1.93;1.83;;;11.40;99.90;;;;;;5074771;28;20449;-56
2023/04/12 08:10:25;;;;;;;4.37;3.97;;;11.50;99.90;;;;;;5074574;28;20456;-56
2023/04/12 08:12:51;;;;;;;4.00;3.30;;;11.50;99.90;;;;;;5074498;28;20453;-56
2023/04/12 08:15:20;;;;;;;2.63;1.70;;;11.60;99.90;;;;;;5074453;28;20476;-56
2023/04/12 08:17:47;;;;;;;2.00;1.80;;;11.70;99.90;;;;;;5073856;28;20853;-56
2023/04/12 08:20:15;;;;;;;2.53;2.00;;;11.80;99.90;;;;;;5074801;28;20445;-56
2023/04/12 08:22:41;;;;;;;2.13;1.87;;;11.90;99.90;;;;;;5070614;28;20484;-55
2023/04/12 08:25:09;;;;;;;2.00;1.43;;;12.00;99.90;;;;;;5074200;28;20878;-56
2023/04/12 08:27:36;;;;;;;2.13;1.90;;;12.00;99.90;;;;;;5074240;28;20484;-56
2023/04/12 08:30:03;;;;;;;3.10;1.80;;;12.00;99.90;;;;;;5074195;28;20812;-56
2023/04/12 08:32:31;;;;;;;2.70;1.60;;;12.10;99.90;;;;;;5073658;28;20957;-56
2023/04/12 08:34:59;;;;;;;2.70;1.60;;;12.10;99.90;;;;;;5073389;28;21013;-56
2023/04/12 08:37:25;;;;;;;2.80;1.70;;;12.10;99.90;;;;;;5073740;28;20445;-56
2023/04/12 08:39:52;;;;;;;2.30;1.60;;;12.10;99.90;;;;;;5074134;28;20449;-56
2023/04/12 08:42:19;;;;;;;1.43;1.33;;;12.10;99.90;;;;;;5073804;28;20954;-56
2023/04/12 08:44:47;;;;;;;2.13;1.73;;;12.10;99.90;;;;;;5073879;28;20465;-56
2023/04/12 08:47:13;;;;;;;1.60;1.50;;;12.10;99.90;;;;;;5073756;28;20512;-56
2023/04/12 08:49:41;;;;;;;2.07;1.67;;;12.10;99.90;;;;;;5073876;28;20498;-56
2023/04/12 08:52:10;;;;;;;2.17;1.83;;;12.10;99.90;;;;;;5073516;28;20958;-56
2023/04/12 08:54:37;;;;;;;2.83;1.90;;;12.10;99.90;;;;;;5073884;28;20472;-56
2023/04/12 08:57:09;;;;;;;3.73;2.23;;;12.10;99.90;;;;;;5074594;28;20822;-56
2023/04/12 08:59:38;;;;;;;2.20;1.90;;;12.10;99.90;;;;;;5073726;28;20494;-56
2023/04/12 09:02:04;;;;;;;2.17;1.97;;;12.20;99.90;;;;;;5073856;28;20437;-56
2023/04/12 09:04:31;;;;;;;4.03;2.40;;;12.20;99.90;;;;;;5073547;28;20464;-56
2023/04/12 09:06:59;;;;;;;2.10;1.90;;;12.20;99.90;;;;;;5073513;28;20921;-56
2023/04/12 09:09:50;;;;;;;3.17;2.63;;;12.30;99.90;;;;;;5073511;28;20450;-55
2023/04/12 09:12:19;;;;;;;3.50;2.57;;;12.30;99.90;;;;;;5058156;28;20501;-56
2023/04/12 09:14:46;;;;;;;3.10;2.60;;;12.30;99.90;;;;;;5073431;28;20468;-56
2023/04/12 09:17:23;;;;;;;2.80;2.60;;;12.40;99.90;;;;;;5073446;28;20491;-56
2023/04/12 09:19:50;;;;;;;1.47;1.20;;;12.50;99.90;;;;;;5073672;28;20483;-56
2023/04/12 09:22:18;;;;;;;1.97;1.77;;;12.50;99.90;;;;;;5073418;28;20861;-56
2023/04/12 09:24:48;;;;;;;2.20;2.00;;;12.60;99.90;;;;;;5073388;28;20539;-56
2023/04/12 09:27:15;;;;;;;2.27;1.43;;;12.80;99.90;;;;;;5073347;28;20468;-56
2023/04/12 09:29:44;;;;;;;4.40;1.90;;;13.00;99.90;;;;;;5072995;28;20950;-57
2023/04/12 09:32:11;;;;;;;1.40;1.30;;;13.20;99.90;;;;;;5073330;28;20453;-57
2023/04/12 09:34:38;;;;;;;1.30;1.10;;;13.40;99.90;;;;;;5073225;28;20464;-57
2023/04/12 09:37:13;;;;;;;1.00;0.90;;;13.50;99.90;;;;;;5073180;28;20961;-56
2023/04/12 09:39:41;;;;;;;1.37;0.93;;;13.50;99.90;;;;;;5073058;28;20527;-56
2023/04/12 09:42:09;;;;;;;1.17;0.60;;;13.40;99.90;;;;;;5073098;28;20463;-57
2023/04/12 09:44:36;;;;;;;0.90;0.70;;;13.30;99.90;;;;;;5074512;28;20481;-57
2023/04/12 09:47:04;;;;;;;0.63;0.50;;;13.30;99.90;;;;;;5077696;28;20480;-57
2023/04/12 09:49:39;;;;;;;0.63;0.60;;;13.30;99.90;;;;;;5077477;28;20819;-57
2023/04/12 09:52:07;;;;;;;1.00;0.70;;;13.40;99.90;;;;;;5077312;28;20451;-57
2023/04/12 09:54:38;;;;;;;0.83;0.70;;;13.60;99.90;;;;;;5077259;28;20513;-57
2023/04/12 09:57:08;;;;;;;1.77;0.70;;;13.60;99.90;;;;;;5077277;28;20452;-57
2023/04/12 09:59:38;;;;;;;0.70;0.70;;;13.80;99.90;;;;;;5077249;28;20456;-57
2023/04/12 10:02:08;;;;;;;0.50;0.50;;;13.90;99.90;;;;;;5077477;28;20978;-57
2023/04/12 10:04:37;;;;;;;0.80;0.80;;;14.20;99.90;;;;;;5077003;28;20837;-57
2023/04/12 10:07:05;;;;;;;1.00;0.90;;;14.30;99.60;;;;;;5076964;28;20516;-58
2023/04/12 10:09:33;;;;;;;1.63;0.97;;;14.40;99.80;;;;;;5076731;28;20935;-58
2023/04/12 10:12:02;;;;;;;1.57;1.17;;;14.30;99.00;;;;;;5076841;28;20531;-57
2023/04/12 10:14:30;;;;;;;1.40;1.30;;;14.30;98.20;;;;;;5077381;28;20469;-58
2023/04/12 10:16:59;;;;;;;2.47;1.87;;;14.40;98.20;;;;;;5076448;28;20543;-58
2023/04/12 10:19:27;;;;;;;4.00;2.00;;;14.60;98.70;;;;;;5076710;28;20448;-57
2023/04/12 10:21:55;;;;;;;2.40;2.00;;;14.80;98.00;;;;;;5076845;28;20506;-58
2023/04/12 10:24:22;;;;;;;2.20;1.60;;;15.00;96.00;;;;;;5076716;28;20468;-57
2023/04/12 10:26:50;;;;;;;4.20;1.90;;;15.00;96.00;;;;;;5076168;28;20990;-57
2023/04/12 10:29:25;;;;;;;2.27;1.70;;;14.80;94.50;;;;;;5076309;28;20444;-57
2023/04/12 10:31:53;;;;;;;3.03;2.43;;;14.60;94.80;;;;;;5076531;28;20834;-57
2023/04/12 10:34:25;;;;;;;5.30;2.97;;;14.20;95.20;;;;;;5076452;28;20480;-57
2023/04/12 10:36:53;;;;;;;4.03;3.00;;;13.80;96.30;;;;;;5076329;28;20467;-57
2023/04/12 10:39:36;;;;;;;6.70;4.50;;;13.50;97.50;;;;;;5076383;28;20456;-57
2023/04/12 10:42:17;;;;;;;7.43;5.40;;;13.30;98.00;;;;;;5076266;28;20463;-57
2023/04/12 10:44:44;;;;;;;9.80;5.70;;;13.10;99.10;;;;;;5076015;28;20504;-57
2023/04/12 10:47:12;;;;;;;9.17;5.43;;;13.20;99.90;;;;;;5076488;28;20613;-57
2023/04/12 10:49:39;;;;;;;7.27;6.00;;;13.10;99.50;;;;;;5075885;28;20793;-57
2023/04/12 10:52:14;;;;;;;6.50;5.20;;;13.10;99.30;;;;;;5076150;28;20449;-57
2023/04/12 10:54:41;;;;;;;6.40;4.67;;;13.20;99.10;;;;;;5075980;28;20471;-57
2023/04/12 10:57:28;;;;;;;6.60;4.07;;;13.30;98.20;;;;;;5074978;28;20946;-57
2023/04/12 10:59:58;;;;;;;4.80;3.80;;;13.40;97.90;;;;;;5075607;28;20459;-57
2023/04/12 11:02:26;;;;;;;4.63;3.00;;;13.60;96.10;;;;;;5075948;28;20448;-57
2023/04/12 11:05:07;;;;;;;2.80;2.53;;;13.80;96.40;;;;;;5076125;28;20593;-57
2023/04/12 11:07:45;;;;;;;4.03;2.20;;;14.00;95.10;;;;;;5075442;28;20882;-58
2023/04/12 11:10:16;;;;;;;4.73;3.20;;;14.10;94.10;;;;;;5075601;28;20801;-57
2023/04/12 11:12:47;;;;;;;4.00;2.37;;;14.30;93.60;;;;;;5075926;28;20673;-57
2023/04/12 11:15:14;;;;;;;3.80;2.00;;;14.40;92.20;;;;;;5075400;28;21047;-58
2023/04/12 11:17:42;;;;;;;2.50;1.80;;;14.60;90.20;;;;;;5075722;28;20440;-58
2023/04/12 11:20:12;;;;;;;7.93;3.10;;;14.80;90.70;;;;;;5075633;28;20452;-57
2023/04/12 11:22:39;;;;;;;4.50;2.70;;;15.10;89.30;;;;;;5076402;28;20456;-58
2023/04/12 11:25:07;;;;;;;4.03;2.70;;;15.40;89.30;;;;;;5075473;28;20502;-58
2023/04/12 11:27:36;;;;;;;3.30;1.70;;;15.90;88.70;;;;;;5075490;28;20485;-58
2023/04/12 11:30:03;;;;;;;4.13;2.03;;;16.50;84.30;;;;;;5075135;28;20484;-58
2023/04/12 11:32:32;;;;;;;5.07;1.90;;;17.00;78.20;;;;;;5075190;28;20457;-58
2023/04/12 11:35:01;;;;;;;6.40;2.13;;;17.70;76.60;;;;;;5075378;28;20522;-58
2023/04/12 11:37:30;;;;;;;6.20;1.90;;;18.50;70.80;;;;;;5074988;28;21025;-57
2023/04/12 11:39:58;;;;;;;1.90;1.70;;;18.90;69.50;;;;;;5075236;28;20440;-58
2023/04/12 11:42:27;;;;;;;4.23;1.90;;;19.20;65.80;;;;;;5075089;28;20484;-58
2023/04/12 11:44:55;;;;;;;7.70;2.30;;;19.40;63.40;;;;;;5075013;28;21081;-58
2023/04/12 11:47:23;;;;;;;6.23;2.27;;;19.60;63.60;;;;;;5074762;28;21171;-58
2023/04/12 11:49:51;;;;;;;4.37;1.67;;;19.80;64.90;;;;;;5075105;28;20488;-58
2023/04/12 11:52:21;;;;;;;5.67;1.90;;;19.90;61.90;;;;;;5075302;28;20441;-58
2023/04/12 11:54:50;;;;;;;9.67;2.40;;;19.90;58.70;;;;;;5075204;28;20488;-58
2023/04/12 11:57:17;;;;;;;4.57;1.83;;;20.10;57.60;;;;;;5074633;28;20973;-58
2023/04/12 11:59:46;;;;;;;7.00;2.20;;;20.10;55.00;;;;;;5074811;28;20826;-58
2023/04/12 12:02:13;;;;;;;6.80;2.80;;;19.90;54.20;;;;;;5074846;28;20795;-58
2023/04/12 12:04:42;;;;;;;5.93;1.90;;;19.70;55.80;;;;;;5074433;28;21004;-58
2023/04/12 12:07:11;;;;;;;6.63;1.57;;;19.60;56.40;;;;;;5074247;28;21018;-58
2023/04/12 12:09:39;;;;;;;5.07;2.60;;;19.50;57.80;;;;;;5073870;28;20445;-58
2023/04/12 12:12:06;;;;;;;7.57;2.70;;;19.10;57.00;;;;;;5074688;28;20456;-58
2023/04/12 12:14:35;;;;;;;8.10;2.50;;;19.00;58.30;;;;;;5074801;28;20474;-58
2023/04/12 12:17:02;;;;;;;7.60;3.00;;;19.10;57.10;;;;;;5074758;28;20498;-58
2023/04/12 12:19:31;;;;;;;10.90;2.73;;;19.20;55.50;;;;;;5074910;28;20453;-58
2023/04/12 12:22:15;;;;;;;8.13;2.33;;;19.30;57.40;;;;;;5074769;28;20492;-58
2023/04/12 12:24:49;;;;;;;7.63;2.17;;;19.40;54.70;;;;;;5074499;28;20538;-58
2023/04/12 12:27:22;;;;;;;6.03;1.90;;;19.10;56.50;;;;;;5074365;28;20562;-58
2023/04/12 12:29:53;;;;;;;7.60;2.60;;;19.00;56.80;;;;;;5074605;28;20436;-58
2023/04/12 12:32:23;;;;;;;10.70;2.13;;;18.90;55.40;;;;;;5074067;28;20984;-58
2023/04/12 12:34:54;;;;;;;6.13;2.10;;;18.60;56.00;;;;;;5074215;28;20473;-58
2023/04/12 12:37:23;;;;;;;7.53;2.53;;;19.00;56.20;;;;;;5074565;28;20456;-58
2023/04/12 12:40:12;;;;;;;7.47;2.20;;;19.30;55.90;;;;;;5074928;28;20452;-58
2023/04/12 12:42:46;;;;;;;10.43;2.60;;;19.70;54.40;;;;;;5075421;28;20985;-58
2023/04/12 12:45:13;;;;;;;7.40;3.00;;;20.40;54.10;;;;;;5074378;28;20468;-58
2023/04/12 12:47:51;;;;;;;9.50;2.80;;;21.30;51.10;;;;;;5074734;28;20520;-58
2023/04/12 12:50:18;;;;;;;5.20;2.20;;;22.40;47.20;;;;;;5074470;28;20484;-58
2023/04/12 12:52:46;;;;;;;8.20;2.47;;;23.00;46.70;;;;;;5074302;28;20453;-58